Time;durP1;ratioP1;P1;durP2;ratioP2;P2;SDS_P1;SDS_P2;PMS_P1;PMS_P2;Temp;Humidity;BMP_temperature;BMP_pressure;BME280_temperature;BME280_humidity;BME280_pressure;Samples;Min_cycle;Max_cycle;Signal;HPM_P1;HPM_P2
2021/01/16 00:02:20;;;;;;;38.47;16.40;;;;;;;-2.55;57.85;99292.19;260871;1104;114530;-62
2021/01/16 00:07:24;;;;;;;36.53;16.23;;;;;;;-2.70;57.87;99301.81;260901;1104;114774;-63
2021/01/16 00:12:26;;;;;;;50.03;18.33;;;;;;;-2.83;58.68;99309.69;260861;1104;115923;-63
2021/01/16 00:17:28;;;;;;;51.73;19.33;;;;;;;-2.94;58.06;99307.98;260782;1104;114980;-63
2021/01/16 00:22:32;;;;;;;43.67;18.03;;;;;;;-3.01;58.87;99306.28;259649;1104;116537;-62
2021/01/16 00:27:34;;;;;;;38.57;17.47;;;;;;;-3.02;58.64;99309.77;260783;1104;114872;-63
2021/01/16 00:32:40;;;;;;;38.50;14.83;;;;;;;-2.99;58.82;99309.76;260746;1104;114922;-64
2021/01/16 00:37:46;;;;;;;33.87;15.10;;;;;;;-3.00;58.24;99313.21;260712;1103;114983;-63
2021/01/16 00:42:54;;;;;;;35.90;15.97;;;;;;;-3.02;59.11;99312.37;260815;1103;114871;-63
2021/01/16 00:47:56;;;;;;;39.57;17.50;;;;;;;-3.05;59.00;99314.98;260768;1104;115011;-63
2021/01/16 00:52:59;;;;;;;38.07;15.77;;;;;;;-3.03;58.21;99317.56;260820;1104;115222;-63
2021/01/16 00:58:11;;;;;;;37.50;16.33;;;;;;;-3.01;59.16;99326.25;260859;1104;114800;-63
2021/01/16 01:03:23;;;;;;;33.37;14.67;;;;;;;-2.99;58.49;99329.69;260747;1104;115520;-63
2021/01/16 01:08:29;;;;;;;35.60;14.67;;;;;;;-2.98;58.21;99327.10;260878;1104;114801;-62
2021/01/16 01:13:31;;;;;;;31.17;14.10;;;;;;;-2.93;58.18;99332.28;260747;1104;114736;-63
2021/01/16 01:18:33;;;;;;;31.97;13.17;;;;;;;-2.88;58.13;99338.36;260727;1103;114580;-63
2021/01/16 01:23:36;;;;;;;29.80;13.53;;;;;;;-2.88;58.60;99330.55;260796;1104;114934;-63
2021/01/16 01:28:38;;;;;;;32.57;13.80;;;;;;;-2.89;58.76;99328.80;260836;1104;115140;-63
2021/01/16 01:33:41;;;;;;;32.47;14.43;;;;;;;-2.93;57.69;99325.33;259541;1104;115203;-63
2021/01/16 01:38:45;;;;;;;37.50;14.70;;;;;;;-2.98;57.41;99321.03;260815;1104;115033;-64
2021/01/16 01:43:48;;;;;;;38.93;15.30;;;;;;;-3.03;57.87;99326.23;260934;1104;116298;-65
2021/01/16 01:48:54;;;;;;;33.07;15.20;;;;;;;-3.11;58.37;99338.41;260652;1104;115538;-65
2021/01/16 01:53:58;;;;;;;31.02;13.58;;;;;;;-3.16;58.19;99338.44;260863;1104;115543;-65
2021/01/16 01:59:02;;;;;;;;;;;;;;;-3.13;57.56;99338.40;260797;1104;115587;-65
2021/01/16 02:04:07;;;;;;;29.10;12.17;;;;;;;-3.14;58.06;99328.87;260761;1105;102634;-65
2021/01/16 02:09:11;;;;;;;31.83;13.67;;;;;;;-3.19;57.67;99325.42;260943;1104;115179;-64
2021/01/16 02:14:13;;;;;;;26.03;12.67;;;;;;;-3.21;58.15;99321.95;260845;1103;114871;-65
2021/01/16 02:19:38;;;;;;;29.53;12.63;;;;;;;-3.22;57.46;99327.17;260337;1104;115001;-67
2021/01/16 02:24:58;;;;;;;27.87;11.37;;;;;;;-3.26;57.37;99313.30;260843;1104;114694;-66
2021/01/16 02:30:03;;;;;;;26.90;12.30;;;;;;;-3.28;57.69;99328.03;261052;1104;114939;-66
2021/01/16 02:35:06;;;;;;;;;;;;;;;-3.22;58.05;99332.38;260767;1104;115447;-67
2021/01/16 02:40:31;;;;;;;29.87;12.67;;;;;;;-3.17;58.35;99328.02;260751;1104;103713;-62
2021/01/16 02:45:42;;;;;;;32.03;12.90;;;;;;;-3.13;57.94;99327.12;260705;1104;115201;-61
2021/01/16 02:50:49;;;;;;;26.67;11.97;;;;;;;-3.05;58.02;99321.92;260762;1104;115017;-61
2021/01/16 02:55:52;;;;;;;29.60;12.25;;;;;;;-3.03;58.35;99313.22;260854;1104;115198;-62
2021/01/16 03:00:55;;;;;;;27.13;11.43;;;;;;;-3.01;57.56;99303.68;260904;1104;114709;-61
2021/01/16 03:05:57;;;;;;;24.70;10.57;;;;;;;-3.04;57.63;99305.42;260972;1104;115039;-63
2021/01/16 03:11:00;;;;;;;31.40;13.00;;;;;;;-3.07;57.86;99295.02;260953;1104;114962;-62
2021/01/16 03:16:06;;;;;;;26.60;11.83;;;;;;;-3.08;58.22;99285.48;260837;1104;114949;-63
2021/01/16 03:21:09;;;;;;;28.73;12.47;;;;;;;-3.07;58.55;99289.81;260756;1104;116004;-62
2021/01/16 03:26:11;;;;;;;30.73;12.70;;;;;;;-3.02;58.75;99288.05;260916;1104;114994;-61
2021/01/16 03:31:13;;;;;;;30.73;14.23;;;;;;;-3.00;58.00;99281.97;260866;1103;115433;-62
2021/01/16 03:36:16;;;;;;;29.60;11.75;;;;;;;-2.95;58.83;99292.39;260731;1104;114824;-62
2021/01/16 03:41:19;;;;;;;33.33;13.77;;;;;;;-2.93;58.68;99290.63;260778;1104;114869;-63
2021/01/16 03:46:21;;;;;;;30.23;14.07;;;;;;;-2.90;58.88;99293.22;260528;1104;115077;-64
2021/01/16 03:51:24;;;;;;;34.30;13.83;;;;;;;-2.87;58.93;99288.87;260795;1104;115182;-64
2021/01/16 03:56:26;;;;;;;29.63;12.30;;;;;;;-2.88;58.09;99276.73;260913;1104;114803;-64
2021/01/16 04:01:31;;;;;;;29.90;12.10;;;;;;;-2.86;58.93;99268.89;260862;1104;114903;-64
2021/01/16 04:06:33;;;;;;;31.73;13.63;;;;;;;-2.84;58.09;99263.70;260864;1104;115026;-63
2021/01/16 04:11:36;;;;;;;27.10;13.07;;;;;;;-2.80;58.40;99253.25;260753;1105;115289;-64
2021/01/16 04:16:38;;;;;;;29.47;12.13;;;;;;;-2.77;58.35;99252.38;260868;1104;114933;-62
2021/01/16 04:21:41;;;;;;;25.70;11.57;;;;;;;-2.79;58.92;99252.37;260860;1104;116014;-64
2021/01/16 04:26:43;;;;;;;25.67;10.70;;;;;;;-2.82;58.07;99254.13;260900;1104;115168;-65
2021/01/16 04:31:48;;;;;;;26.75;11.70;;;;;;;-2.82;58.62;99247.17;260800;1104;114937;-65
2021/01/16 04:36:50;;;;;;;20.93;11.13;;;;;;;-2.78;59.31;99246.31;259906;1102;114659;-62
2021/01/16 04:41:55;;;;;;;27.97;12.23;;;;;;;-2.75;58.60;99255.82;258197;1104;114960;-66
2021/01/16 04:47:02;;;;;;;27.57;12.27;;;;;;;-2.75;59.54;99261.92;260791;1104;114985;-65
2021/01/16 04:52:06;;;;;;;25.83;12.03;;;;;;;-2.73;59.04;99270.57;260855;1104;114838;-64
2021/01/16 04:57:12;;;;;;;23.87;11.87;;;;;;;-2.71;59.39;99274.05;260803;1104;114840;-64
2021/01/16 05:02:15;;;;;;;29.53;12.60;;;;;;;-2.76;59.16;99280.14;260889;1104;114623;-64
2021/01/16 05:07:19;;;;;;;27.30;11.30;;;;;;;-2.86;59.68;99274.11;260814;1104;114916;-67
2021/01/16 05:12:33;;;;;;;24.92;11.40;;;;;;;-2.95;60.06;99276.77;260864;1104;114693;-68
2021/01/16 05:17:40;;;;;;;24.70;11.53;;;;;;;-2.93;60.49;99277.61;260759;1104;114833;-62
2021/01/16 05:22:43;;;;;;;26.70;10.87;;;;;;;-2.91;60.15;99281.09;260698;1104;115318;-64
2021/01/16 05:27:59;;;;;;;28.07;12.27;;;;;;;-2.93;59.83;99281.08;260851;1104;114915;-63
2021/01/16 05:33:10;;;;;;;23.27;9.98;;;;;;;-3.00;60.29;99276.77;260797;1104;114935;-66
2021/01/16 05:38:15;;;;;;;26.67;12.40;;;;;;;-3.02;60.43;99267.22;260894;1104;115117;-65
2021/01/16 05:43:19;;;;;;;27.42;11.35;;;;;;;-3.00;60.17;99262.89;260952;1104;114934;-66
2021/01/16 05:48:21;;;;;;;17.12;8.08;;;;;;;-2.95;60.82;99254.20;260848;1104;114860;-65
2021/01/16 05:53:25;;;;;;;30.57;12.70;;;;;;;-2.95;61.01;99266.36;260845;1104;114502;-65
2021/01/16 05:58:32;;;;;;;25.17;12.67;;;;;;;-2.88;61.07;99270.66;260870;1104;114603;-66
2021/01/16 06:03:37;;;;;;;30.07;12.83;;;;;;;-2.79;60.54;99254.97;260817;1104;115326;-66
2021/01/16 06:08:49;;;;;;;25.40;12.00;;;;;;;-2.77;60.27;99254.98;260918;1104;115060;-65
2021/01/16 06:14:01;;;;;;;25.67;11.67;;;;;;;-2.74;61.35;99253.23;260731;1104;114944;-68
2021/01/16 06:19:05;;;;;;;24.73;12.07;;;;;;;-2.74;61.41;99245.41;260635;1104;115161;-63
2021/01/16 06:24:07;;;;;;;25.10;11.03;;;;;;;-2.72;61.14;99248.00;260765;1104;114810;-63
2021/01/16 06:29:36;;;;;;;28.43;12.37;;;;;;;-2.66;61.43;99251.44;260787;1104;114934;-63
2021/01/16 06:34:43;;;;;;;23.77;11.33;;;;;;;-2.63;61.78;99242.75;260693;1104;115351;-63
2021/01/16 06:39:50;;;;;;;25.53;12.00;;;;;;;-2.54;61.56;99241.84;260826;1104;115008;-62
2021/01/16 06:45:07;;;;;;;29.07;11.80;;;;;;;-2.48;61.59;99246.98;260910;1104;114947;-62
2021/01/16 06:50:10;;;;;;;25.20;11.87;;;;;;;-2.46;61.30;99235.69;260247;1104;114985;-62
2021/01/16 06:55:16;;;;;;;27.47;12.80;;;;;;;-2.42;62.16;99229.58;260919;1104;114686;-63
2021/01/16 07:00:19;;;;;;;26.67;13.23;;;;;;;-2.42;61.61;99233.92;260874;1104;114958;-60
2021/01/16 07:05:22;;;;;;;18.87;10.63;;;;;;;-2.36;61.40;99243.45;260902;1104;115520;-61
2021/01/16 07:10:30;;;;;;;30.40;12.43;;;;;;;-2.30;61.41;99244.28;260695;1104;114978;-61
2021/01/16 07:15:32;;;;;;;25.90;12.40;;;;;;;-2.28;61.47;99232.08;260875;1104;115142;-64
2021/01/16 07:20:39;;;;;;;27.90;12.93;;;;;;;-2.28;62.02;99234.69;260807;1104;115016;-64
2021/01/16 07:25:50;;;;;;;26.57;13.47;;;;;;;-2.26;62.29;99235.55;260410;1104;115074;-63
2021/01/16 07:30:54;;;;;;;25.70;13.07;;;;;;;-2.10;63.02;99230.24;260830;1104;115359;-62
2021/01/16 07:35:58;;;;;;;29.20;14.73;;;;;;;-1.95;63.57;99217.06;260757;1104;114929;-62
2021/01/16 07:41:08;;;;;;;33.28;14.90;;;;;;;-1.84;62.50;99209.99;260902;1103;114532;-62
2021/01/16 07:46:11;;;;;;;28.40;14.50;;;;;;;-1.69;61.94;99220.30;260820;1103;114828;-62
2021/01/16 07:51:15;;;;;;;32.47;14.63;;;;;;;-1.70;61.89;99217.69;260708;1104;115017;-64
2021/01/16 07:56:33;;;;;;;29.48;15.53;;;;;;;-1.74;62.43;99214.24;260834;1104;114780;-64
2021/01/16 08:01:38;;;;;;;33.87;15.73;;;;;;;-1.71;61.79;99208.14;260792;1104;114772;-64
2021/01/16 08:07:00;;;;;;;32.30;15.50;;;;;;;-1.63;63.46;99197.62;260718;1104;114924;-63
2021/01/16 08:12:07;;;;;;;34.03;16.07;;;;;;;-1.50;62.78;99204.44;260876;1104;114547;-63
2021/01/16 08:17:34;;;;;;;26.37;13.90;;;;;;;-1.47;62.52;99204.41;260913;1104;114583;-64
2021/01/16 08:22:38;;;;;;;29.83;15.67;;;;;;;-1.36;63.09;99199.92;260727;1104;114992;-64
2021/01/16 08:27:48;;;;;;;30.90;14.45;;;;;;;-1.31;62.07;99203.36;260738;1104;115024;-63
2021/01/16 08:33:07;;;;;;;26.57;14.17;;;;;;;-1.36;63.08;99199.92;260794;1104;114941;-63
2021/01/16 08:38:16;;;;;;;31.23;15.27;;;;;;;-1.33;61.70;99201.64;260683;1104;115009;-64
2021/01/16 08:43:28;;;;;;;27.47;15.97;;;;;;;-1.24;62.73;99209.37;260879;1104;114881;-64
2021/01/16 08:48:31;;;;;;;27.43;14.50;;;;;;;-1.18;63.13;99204.09;260643;1104;114751;-63
2021/01/16 08:53:33;;;;;;;28.43;13.80;;;;;;;-1.03;62.31;99203.88;260788;1104;114847;-63
2021/01/16 08:58:37;;;;;;;26.87;14.03;;;;;;;-0.94;63.29;99202.05;260785;1104;114537;-63
2021/01/16 09:03:39;;;;;;;28.52;14.28;;;;;;;-0.87;61.64;99201.95;260964;1104;115671;-63
2021/01/16 09:08:46;;;;;;;28.23;15.73;;;;;;;-0.75;62.09;99214.86;260773;1104;115127;-64
2021/01/16 09:14:02;;;;;;;24.77;13.23;;;;;;;-0.66;61.65;99216.46;260789;1104;114728;-64
2021/01/16 09:19:05;;;;;;;26.73;14.43;;;;;;;-0.53;62.43;99212.80;260783;1104;114692;-64
2021/01/16 09:24:23;;;;;;;26.93;14.80;;;;;;;-0.58;61.54;99216.34;260751;1103;114945;-64
2021/01/16 09:29:26;;;;;;;26.80;13.37;;;;;;;-0.60;61.26;99200.70;260899;1104;114935;-65
2021/01/16 09:34:35;;;;;;;30.83;15.50;;;;;;;-0.51;62.78;99204.91;260892;1104;114915;-62
2021/01/16 09:39:37;;;;;;;28.03;13.33;;;;;;;-0.42;62.32;99198.70;260484;1104;115933;-63
2021/01/16 09:44:39;;;;;;;22.30;12.03;;;;;;;-0.40;61.77;99200.41;260803;1104;114575;-63
2021/01/16 09:49:45;;;;;;;23.33;13.63;;;;;;;-0.35;61.83;99192.48;260837;1104;114794;-62
2021/01/16 09:54:50;;;;;;;26.27;14.00;;;;;;;-0.33;62.23;99186.35;260865;1104;114913;-63
2021/01/16 10:00:08;;;;;;;23.87;13.18;;;;;;;-0.28;61.85;99184.52;260912;1104;114575;-63
2021/01/16 10:05:26;;;;;;;24.77;12.40;;;;;;;-0.21;61.13;99180.05;260822;1104;114852;-62
2021/01/16 10:10:41;;;;;;;18.17;10.87;;;;;;;-0.23;60.78;99170.52;260778;1104;114936;-63
2021/01/16 10:15:49;;;;;;;20.40;9.70;;;;;;;-0.21;60.87;99174.81;260556;1104;115075;-63
2021/01/16 10:21:00;;;;;;;21.90;11.07;;;;;;;-0.13;61.12;99169.48;260731;1105;116052;-63
2021/01/16 10:26:12;;;;;;;19.03;11.20;;;;;;;-0.09;61.03;99166.78;260684;1104;115297;-63
2021/01/16 10:31:23;;;;;;;21.40;11.40;;;;;;;0.03;60.93;99163.08;260721;1104;114984;-64
2021/01/16 10:36:28;;;;;;;19.97;11.37;;;;;;;0.09;61.99;99162.11;260782;1104;115036;-68
2021/01/16 10:41:38;;;;;;;21.20;11.67;;;;;;;0.12;60.27;99151.59;260360;1104;114712;-65
2021/01/16 10:46:53;;;;;;;22.03;11.90;;;;;;;0.07;60.30;99145.57;260793;1104;114413;-64
2021/01/16 10:52:02;;;;;;;23.57;12.83;;;;;;;0.02;60.31;99142.19;260729;1104;114808;-65
2021/01/16 10:57:07;;;;;;;21.87;11.30;;;;;;;-0.01;61.65;99135.25;260619;1104;114691;-64
2021/01/16 11:02:19;;;;;;;26.03;12.20;;;;;;;0.02;61.81;99127.35;260663;1104;114844;-68
2021/01/16 11:07:30;;;;;;;26.87;13.43;;;;;;;-0.03;61.58;99111.75;260576;1104;114692;-67
2021/01/16 11:12:38;;;;;;;23.13;12.00;;;;;;;0.00;60.58;99105.61;260755;1104;114850;-68
2021/01/16 11:17:58;;;;;;;23.60;13.47;;;;;;;0.04;61.82;99115.12;260704;1104;114888;-65
2021/01/16 11:23:04;;;;;;;17.93;9.60;;;;;;;0.09;60.57;99104.55;260811;1104;114863;-66
2021/01/16 11:28:09;;;;;;;18.57;10.30;;;;;;;0.11;60.76;99093.18;260447;1104;114595;-68
2021/01/16 11:33:14;;;;;;;20.27;10.27;;;;;;;0.05;59.73;99082.82;260742;1104;114917;-66
2021/01/16 11:39:09;;;;;;;22.23;12.07;;;;;;;0.02;60.73;99087.25;260376;1104;115585;-70
2021/01/16 11:44:57;;;;;;;23.20;12.07;;;;;;;0.06;62.00;99079.30;260490;1104;114912;-70
2021/01/16 11:50:09;;;;;;;22.37;13.17;;;;;;;0.10;60.70;99077.49;260630;1105;114787;-70
2021/01/16 11:55:13;;;;;;;28.13;14.40;;;;;;;0.16;61.08;99070.39;260672;1104;114845;-65
2021/01/16 12:00:19;;;;;;;28.60;16.00;;;;;;;0.21;62.08;99065.08;260633;1104;115154;-65
2021/01/16 12:05:23;;;;;;;32.57;17.70;;;;;;;0.32;61.37;99067.48;260506;1104;114951;-66
2021/01/16 12:10:28;;;;;;;30.60;16.17;;;;;;;0.34;61.83;99058.71;260732;1104;114651;-65
2021/01/16 12:15:32;;;;;;;24.47;15.07;;;;;;;0.31;61.15;99056.16;260551;1104;115461;-66
2021/01/16 12:20:37;;;;;;;29.70;16.13;;;;;;;0.33;61.81;99045.64;260818;1104;115128;-66
2021/01/16 12:25:46;;;;;;;;;;;;;;;0.40;61.13;99034.14;260788;1104;114769;-65
2021/01/16 12:30:50;;;;;;;28.30;15.03;;;;;;;0.35;60.56;99029.02;260648;1104;104504;-65
2021/01/16 12:36:04;;;;;;;26.57;14.60;;;;;;;0.31;60.79;99040.45;260491;1104;114809;-66
2021/01/16 12:41:07;;;;;;;26.70;15.13;;;;;;;0.32;60.80;99029.08;260542;1104;114857;-66
2021/01/16 12:46:09;;;;;;;29.50;16.27;;;;;;;0.35;61.68;99009.84;260588;1104;114739;-66
2021/01/16 12:51:17;;;;;;;26.45;14.30;;;;;;;0.33;60.78;99007.23;260423;1104;117149;-66
2021/01/16 12:56:23;;;;;;;28.13;13.20;;;;;;;0.30;61.33;99004.68;260522;1104;115488;-66
2021/01/16 13:01:25;;;;;;;28.20;14.53;;;;;;;0.14;60.54;99006.78;260768;1104;114675;-66
2021/01/16 13:06:31;;;;;;;31.07;16.27;;;;;;;-0.05;61.68;99008.89;260448;1104;115030;-64
2021/01/16 13:11:36;;;;;;;25.57;14.33;;;;;;;-0.17;61.67;99016.99;260613;1103;115146;-67
2021/01/16 13:16:48;;;;;;;22.20;12.75;;;;;;;-0.16;61.04;99013.48;260613;1104;115747;-66
2021/01/16 13:21:51;;;;;;;24.50;14.37;;;;;;;-0.17;61.31;99008.26;260394;1104;115154;-66
2021/01/16 13:26:55;;;;;;;24.13;12.80;;;;;;;-0.21;62.28;99006.60;260733;1104;115001;-65
2021/01/16 13:32:00;;;;;;;20.65;11.25;;;;;;;-0.26;61.56;99007.55;260560;1105;115410;-65
2021/01/16 13:37:13;;;;;;;21.10;10.40;;;;;;;-0.40;61.67;99008.72;260786;1104;115412;-65
2021/01/16 13:42:30;;;;;;;17.90;9.40;;;;;;;-0.43;61.22;98996.55;260694;1104;115051;-66
2021/01/16 13:47:35;;;;;;;16.20;8.47;;;;;;;-0.51;60.28;99006.27;260695;1104;115488;-65
2021/01/16 13:52:50;;;;;;;14.80;7.47;;;;;;;-0.58;60.34;98992.48;260872;1104;114799;-65
2021/01/16 13:58:15;;;;;;;11.83;5.93;;;;;;;-0.63;60.61;98993.44;260728;1104;114789;-66
2021/01/16 14:03:27;;;;;;;9.03;5.50;;;;;;;-0.79;60.35;98993.69;260294;1104;114889;-65
2021/01/16 14:08:30;;;;;;;8.73;5.00;;;;;;;-0.84;60.96;98987.70;260578;1104;115573;-65
2021/01/16 14:13:39;;;;;;;9.33;4.40;;;;;;;-0.86;60.59;98992.07;260824;1104;114569;-65
2021/01/16 14:18:43;;;;;;;15.00;6.20;;;;;;;-0.98;59.38;98998.38;260852;1104;114876;-65
2021/01/16 14:23:46;;;;;;;13.53;5.87;;;;;;;-1.07;60.96;98987.20;260781;1104;114713;-65
2021/01/16 14:28:51;;;;;;;11.70;5.13;;;;;;;-1.16;60.67;99003.01;260518;1104;114926;-65
2021/01/16 14:33:57;;;;;;;11.60;4.87;;;;;;;-1.16;61.04;99008.23;260894;1104;114898;-66
2021/01/16 14:39:13;;;;;;;11.17;5.77;;;;;;;-1.10;61.21;99000.31;260885;1103;114756;-66
2021/01/16 14:44:27;;;;;;;10.33;5.40;;;;;;;-0.96;60.19;98996.58;260772;1104;114632;-65
2021/01/16 14:49:32;;;;;;;12.77;6.70;;;;;;;-0.97;60.11;98984.42;259350;1104;115043;-66
2021/01/16 14:54:48;;;;;;;16.23;9.23;;;;;;;-1.07;60.63;98997.66;260463;1104;114713;-66
2021/01/16 14:59:50;;;;;;;20.33;11.00;;;;;;;-1.07;61.59;98995.91;260798;1104;114813;-65
2021/01/16 15:05:04;;;;;;;21.75;11.00;;;;;;;-1.03;60.69;98999.33;259452;1104;115514;-67
2021/01/16 15:10:09;;;;;;;25.50;12.03;;;;;;;-1.05;60.56;98999.36;260921;1104;114942;-66
2021/01/16 15:15:16;;;;;;;19.63;9.23;;;;;;;-1.09;59.88;99002.02;260773;1104;115110;-64
2021/01/16 15:20:19;;;;;;;19.13;9.93;;;;;;;-1.18;60.30;99004.80;260851;1104;115388;-66
2021/01/16 15:25:23;;;;;;;21.50;10.18;;;;;;;-1.31;60.19;98998.89;260621;1104;115083;-67
2021/01/16 15:30:30;;;;;;;22.77;11.63;;;;;;;-1.38;61.07;99002.48;260591;1104;115080;-65
2021/01/16 15:35:41;;;;;;;26.93;11.73;;;;;;;-1.48;60.46;99009.58;260755;1104;114954;-65
2021/01/16 15:40:44;;;;;;;22.87;11.83;;;;;;;-1.53;60.02;99008.77;260652;1104;115258;-64
2021/01/16 15:45:46;;;;;;;25.23;11.43;;;;;;;-1.50;60.75;99014.80;260789;1104;114872;-64
2021/01/16 15:50:49;;;;;;;20.80;9.97;;;;;;;-1.55;61.22;99010.55;260823;1104;114985;-65
2021/01/16 15:55:56;;;;;;;18.93;9.27;;;;;;;-1.58;61.47;99010.59;260745;1104;114754;-65
2021/01/16 16:01:18;;;;;;;20.20;9.23;;;;;;;-1.54;60.47;99007.91;260744;1104;114411;-64
2021/01/16 16:06:22;;;;;;;20.57;10.53;;;;;;;-1.53;60.83;99003.55;260875;1104;114734;-64
2021/01/16 16:11:35;;;;;;;24.97;11.17;;;;;;;-1.63;60.61;99002.84;260844;1104;115120;-64
2021/01/16 16:16:37;;;;;;;20.90;9.50;;;;;;;-1.69;60.02;99000.30;260951;1104;115208;-64
2021/01/16 16:21:40;;;;;;;22.23;10.70;;;;;;;-1.69;61.54;99001.16;260747;1104;115038;-65
2021/01/16 16:26:42;;;;;;;21.03;10.43;;;;;;;-1.82;61.07;98994.37;260813;1104;115019;-65
2021/01/16 16:31:44;;;;;;;24.43;10.20;;;;;;;-1.80;61.37;98982.19;260399;1104;115271;-65
2021/01/16 16:36:47;;;;;;;26.63;11.90;;;;;;;-1.94;61.35;98966.72;260392;1103;115736;-66
2021/01/16 16:41:49;;;;;;;23.83;11.33;;;;;;;-2.02;60.78;98958.13;260863;1104;115169;-67
2021/01/16 16:46:53;;;;;;;32.15;13.65;;;;;;;-2.09;60.94;98955.62;260567;1103;115412;-70
2021/01/16 16:51:59;;;;;;;30.87;14.37;;;;;;;-2.16;62.06;98955.69;260812;1104;114965;-69
2021/01/16 16:57:03;;;;;;;36.37;15.73;;;;;;;-2.22;61.69;98950.55;260759;1104;115701;-69
2021/01/16 17:02:13;;;;;;;35.10;16.10;;;;;;;-2.17;61.56;98948.76;260507;1104;115807;-70
2021/01/16 17:07:23;;;;;;;42.67;17.83;;;;;;;-2.18;62.72;98953.97;260597;1104;115076;-67
2021/01/16 17:12:29;;;;;;;43.73;17.80;;;;;;;-2.17;61.45;98946.16;260354;1104;115307;-68
2021/01/16 17:17:34;;;;;;;42.20;19.07;;;;;;;-2.20;62.06;98922.73;260720;1104;114965;-67
2021/01/16 17:22:41;;;;;;;45.80;19.00;;;;;;;-2.11;62.55;98916.52;260686;1104;116140;-68
2021/01/16 17:27:48;;;;;;;42.73;18.00;;;;;;;-2.12;62.07;98895.70;260701;1104;114704;-68
2021/01/16 17:32:57;;;;;;;41.17;17.43;;;;;;;-2.20;62.03;98901.02;260408;1104;115200;-67
2021/01/16 17:38:11;;;;;;;35.37;15.67;;;;;;;-2.20;62.28;98899.27;260762;1104;115104;-68
2021/01/16 17:43:14;;;;;;;34.60;15.50;;;;;;;-2.25;62.38;98880.20;260673;1104;114999;-68
2021/01/16 17:48:20;;;;;;;36.60;15.03;;;;;;;-2.25;62.09;98874.99;260697;1104;115883;-68
2021/01/16 17:53:22;;;;;;;42.10;17.33;;;;;;;-2.25;63.23;98864.57;260806;1104;114956;-68
2021/01/16 17:58:28;;;;;;;32.47;14.70;;;;;;;-2.31;62.24;98862.07;260498;1104;114773;-69
2021/01/16 18:03:31;;;;;;;34.93;13.93;;;;;;;-2.39;63.26;98856.08;260487;1104;115132;-69
2021/01/16 18:08:42;;;;;;;32.17;13.90;;;;;;;-2.52;62.84;98857.97;260742;1104;115149;-68
2021/01/16 18:13:53;;;;;;;35.57;13.07;;;;;;;-2.59;63.24;98852.86;260614;1104;114801;-68
2021/01/16 18:18:58;;;;;;;33.17;14.90;;;;;;;-2.56;63.71;98842.41;260747;1104;114959;-68
2021/01/16 18:24:15;;;;;;;29.30;13.53;;;;;;;-2.51;63.76;98840.63;260495;1104;115240;-70
2021/01/16 18:29:22;;;;;;;25.67;11.00;;;;;;;-2.57;62.85;98825.92;260468;1104;114746;-71
2021/01/16 18:34:41;;;;;;;33.67;14.73;;;;;;;-2.50;63.18;98821.50;260552;1104;114889;-70
2021/01/16 18:39:50;;;;;;;34.93;14.07;;;;;;;-2.44;63.96;98821.42;260231;1104;114868;-69
2021/01/16 18:44:57;;;;;;;30.83;13.40;;;;;;;-2.45;62.79;98811.86;260515;1104;115559;-70
2021/01/16 18:50:03;;;;;;;28.57;11.70;;;;;;;-2.52;63.83;98810.22;260498;1105;114933;-70
2021/01/16 18:55:06;;;;;;;31.80;13.70;;;;;;;-2.52;63.21;98807.62;260746;1104;115088;-71
2021/01/16 19:00:12;;;;;;;28.45;12.80;;;;;;;-2.49;64.00;98799.77;260821;1104;115013;-69
2021/01/16 19:05:15;;;;;;;31.97;12.70;;;;;;;-2.57;63.21;98791.20;260675;1104;115698;-69
2021/01/16 19:10:31;;;;;;;27.43;13.30;;;;;;;-2.62;63.88;98794.73;260629;1104;115036;-69
2021/01/16 19:15:35;;;;;;;26.57;12.63;;;;;;;-2.56;64.26;98775.54;260558;1104;114641;-69
2021/01/16 19:20:45;;;;;;;28.17;12.53;;;;;;;-2.66;63.48;98774.80;260854;1103;114860;-69
2021/01/16 19:25:52;;;;;;;28.03;12.30;;;;;;;-2.66;64.36;98781.75;260788;1104;114841;-69
2021/01/16 19:30:57;;;;;;;25.20;11.37;;;;;;;-2.60;63.45;98771.27;260705;1104;115012;-69
2021/01/16 19:36:10;;;;;;;29.23;13.55;;;;;;;-2.70;63.83;98752.29;260694;1104;115064;-74
2021/01/16 19:41:20;;;;;;;35.30;15.28;;;;;;;-2.64;63.76;98761.77;260666;1104;115806;-72
2021/01/16 19:46:22;;;;;;;27.13;12.73;;;;;;;-2.68;63.65;98742.73;260637;1104;115938;-70
2021/01/16 19:51:42;;;;;;;30.07;14.73;;;;;;;-2.67;64.69;98754.00;260872;1103;115247;-70
2021/01/16 19:56:47;;;;;;;30.20;14.17;;;;;;;-2.67;63.84;98740.98;260266;1104;115759;-70
2021/01/16 20:01:50;;;;;;;29.03;13.73;;;;;;;-2.62;64.68;98745.25;260721;1104;114937;-70
2021/01/16 20:06:52;;;;;;;26.43;12.27;;;;;;;-2.59;64.79;98735.66;260690;1104;115068;-68
2021/01/16 20:11:56;;;;;;;30.60;14.60;;;;;;;-2.65;63.92;98736.59;260809;1104;114870;-67
2021/01/16 20:16:58;;;;;;;30.60;13.57;;;;;;;-2.67;64.45;98731.42;260501;1104;114886;-68
2021/01/16 20:22:01;;;;;;;32.67;14.80;;;;;;;-2.67;64.82;98731.42;260737;1104;115295;-68
2021/01/16 20:27:04;;;;;;;36.30;15.23;;;;;;;-2.64;65.05;98715.75;260587;1104;115351;-68
2021/01/16 20:32:08;;;;;;;33.57;15.77;;;;;;;-2.59;64.45;98725.23;260878;1104;115200;-69
2021/01/16 20:37:10;;;;;;;29.45;13.08;;;;;;;-2.57;65.14;98707.85;260682;1103;115352;-69
2021/01/16 20:42:12;;;;;;;33.03;15.90;;;;;;;-2.57;64.56;98698.29;260893;1104;115345;-69
2021/01/16 20:47:15;;;;;;;26.73;13.33;;;;;;;-2.57;64.81;98697.44;260780;1104;115446;-69
2021/01/16 20:52:17;;;;;;;34.83;15.40;;;;;;;-2.60;64.83;98702.69;260292;1104;115161;-69
2021/01/16 20:57:23;;;;;;;33.87;15.27;;;;;;;-2.60;65.64;98676.64;260732;1104;114793;-69
2021/01/16 21:02:28;;;;;;;31.40;14.47;;;;;;;-2.59;65.52;98675.74;260571;1104;115067;-69
2021/01/16 21:07:31;;;;;;;26.27;12.80;;;;;;;-2.67;64.73;98675.87;260551;1104;115025;-69
2021/01/16 21:12:34;;;;;;;34.00;16.02;;;;;;;-2.69;65.34;98680.23;260622;1104;115107;-69
2021/01/16 21:17:37;;;;;;;30.87;14.63;;;;;;;-2.70;64.54;98670.70;260818;1104;115079;-70
2021/01/16 21:22:47;;;;;;;26.53;13.37;;;;;;;-2.63;65.12;98667.98;260738;1104;115332;-68
2021/01/16 21:27:58;;;;;;;23.90;11.80;;;;;;;-2.59;65.66;98670.53;260860;1104;115483;-70
2021/01/16 21:33:02;;;;;;;32.37;15.63;;;;;;;-2.57;65.85;98672.24;260859;1104;115331;-69
2021/01/16 21:38:05;;;;;;;27.70;13.90;;;;;;;-2.53;65.37;98678.27;260572;1104;115503;-68
2021/01/16 21:43:09;;;;;;;36.00;15.73;;;;;;;-2.57;65.91;98676.59;260783;1104;115274;-69
2021/01/16 21:48:11;;;;;;;32.47;14.60;;;;;;;-2.55;65.78;98680.02;260850;1104;115806;-69
2021/01/16 21:54:09;;;;;;;33.42;18.02;;;;;;;-2.32;64.69;98688.34;257410;1107;104330;-68
2021/01/16 21:59:11;;;;;;;32.50;15.90;;;;;;;-2.32;64.77;98671.84;259570;1106;114734;-68
2021/01/16 22:04:13;;;;;;;35.15;15.70;;;;;;;-2.32;65.01;98666.64;259575;1106;114728;-68
2021/01/16 22:09:18;;;;;;;37.90;16.70;;;;;;;-2.32;65.48;98671.84;259540;1105;114700;-67
2021/01/16 22:14:20;;;;;;;37.55;17.25;;;;;;;-2.36;64.99;98672.79;259675;1105;114550;-68
2021/01/16 22:19:22;;;;;;;32.45;15.85;;;;;;;-2.35;65.65;98664.08;259707;1105;114814;-68
2021/01/16 22:24:25;;;;;;;36.90;16.30;;;;;;;-2.40;64.59;98671.98;259586;1106;115686;-68
2021/01/16 22:29:28;;;;;;;34.03;16.45;;;;;;;-2.36;65.40;98659.77;259414;1105;114957;-68
2021/01/16 22:34:30;;;;;;;33.45;15.60;;;;;;;-2.33;65.22;98659.72;259692;1105;114699;-68
2021/01/16 22:39:32;;;;;;;34.30;15.28;;;;;;;-2.33;65.60;98649.30;259641;1105;114726;-69
2021/01/16 22:44:35;;;;;;;36.68;14.85;;;;;;;-2.32;65.56;98636.22;259426;1105;115418;-68
2021/01/16 22:49:37;;;;;;;33.00;16.50;;;;;;;-2.30;65.96;98612.77;259648;1105;115991;-68
2021/01/16 22:54:39;;;;;;;36.53;16.48;;;;;;;-2.25;65.87;98618.73;259539;1105;114844;-69
2021/01/16 22:59:43;;;;;;;33.42;16.75;;;;;;;-2.26;65.03;98623.09;259439;1105;115113;-69
2021/01/16 23:04:46;;;;;;;33.05;16.27;;;;;;;-2.29;64.93;98610.12;258968;1105;116096;-68